Time;durP1;ratioP1;P1;durP2;ratioP2;P2;SDS_P1;SDS_P2;PMS_P1;PMS_P2;Temp;Humidity;BMP_temperature;BMP_pressure;BME280_temperature;BME280_humidity;BME280_pressure;Samples;Min_cycle;Max_cycle;Signal;HPM_P1;HPM_P2
2021/01/22 00:00:24;;;;;;;37.33;18.27;;;;;;;-1.70;81.25;99458.00;1764645;78;21270;-59
2021/01/22 00:02:51;;;;;;;35.50;17.77;;;;;;;-1.68;81.29;99458.00;1780151;79;21250;-56
2021/01/22 00:05:19;;;;;;;35.87;18.63;;;;;;;-1.67;81.35;99447.88;1782283;79;21112;-56
2021/01/22 00:07:47;;;;;;;32.93;17.73;;;;;;;-1.65;81.43;99452.28;1787421;79;22587;-52
2021/01/22 00:10:14;;;;;;;36.00;17.90;;;;;;;-1.62;81.44;99452.72;1750934;79;21198;-57
2021/01/22 00:12:41;;;;;;;35.00;19.23;;;;;;;-1.61;81.52;99450.48;1784613;79;21178;-58
2021/01/22 00:15:10;;;;;;;33.33;17.53;;;;;;;-1.59;81.54;99452.69;1778653;79;21199;-58
2021/01/22 00:17:37;;;;;;;36.07;18.97;;;;;;;-1.58;81.59;99447.84;1781062;79;21100;-57
2021/01/22 00:20:06;;;;;;;36.97;19.37;;;;;;;-1.55;81.65;99443.44;1780093;79;21607;-55
2021/01/22 00:22:35;;;;;;;35.23;17.20;;;;;;;-1.53;81.69;99429.77;1780253;79;21210;-57
2021/01/22 00:25:04;;;;;;;36.50;19.77;;;;;;;-1.51;81.71;99444.28;1778687;79;21617;-55
2021/01/22 00:27:31;;;;;;;33.43;16.87;;;;;;;-1.49;81.75;99432.41;1783224;79;21428;-58
2021/01/22 00:29:58;;;;;;;34.23;18.33;;;;;;;-1.48;81.78;99434.16;1784401;79;21198;-52
2021/01/22 00:32:27;;;;;;;33.17;18.13;;;;;;;-1.47;81.77;99427.56;1781554;79;21395;-53
2021/01/22 00:34:54;;;;;;;44.30;20.47;;;;;;;-1.45;81.81;99424.92;1780999;79;21803;-55
2021/01/22 00:37:21;;;;;;;39.33;19.47;;;;;;;-1.45;81.84;99427.56;1778027;79;21186;-58
2021/01/22 00:39:48;;;;;;;40.70;21.57;;;;;;;-1.43;81.82;99421.36;1781041;79;21222;-53
2021/01/22 00:42:16;;;;;;;41.10;19.30;;;;;;;-1.41;81.86;99421.36;1779946;79;21171;-58
2021/01/22 00:44:43;;;;;;;34.83;18.27;;;;;;;-1.40;81.86;99423.12;1781832;79;22179;-53
2021/01/22 00:47:10;;;;;;;35.07;18.57;;;;;;;-1.38;81.89;99417.39;1780600;79;21794;-54
2021/01/22 00:49:38;;;;;;;40.03;20.13;;;;;;;-1.37;81.91;99423.11;1781341;79;21173;-56
2021/01/22 00:52:06;;;;;;;34.60;19.10;;;;;;;-1.38;81.94;99418.27;1778970;79;21175;-54
2021/01/22 00:54:34;;;;;;;39.57;21.57;;;;;;;-1.39;81.97;99411.67;1777101;79;21163;-53
2021/01/22 00:57:29;;;;;;;37.53;17.67;;;;;;;-1.34;82.03;99407.23;1863595;75;27638;-55
2021/01/22 00:59:58;;;;;;;32.83;16.90;;;;;;;-1.38;82.04;99401.55;1779640;79;21150;-58
2021/01/22 01:02:28;;;;;;;39.30;20.03;;;;;;;-1.37;82.09;99396.71;1735923;80;21751;-55
2021/01/22 01:04:56;;;;;;;27.87;14.03;;;;;;;-1.36;82.10;99395.35;1779043;78;21207;-56
2021/01/22 01:07:23;;;;;;;37.90;19.33;;;;;;;-1.34;82.11;99397.98;1777974;79;21211;-56
2021/01/22 01:09:51;;;;;;;34.90;19.43;;;;;;;-1.34;82.12;99397.98;1770909;80;20961;-54
2021/01/22 01:12:26;;;;;;;37.00;18.57;;;;;;;-1.33;82.12;99397.11;1803500;78;21403;-56
2021/01/22 01:15:05;;;;;;;46.00;28.95;;;;;;;-1.29;82.17;99383.02;1851362;75;27904;-55
2021/01/22 01:17:35;;;;;;;41.33;22.37;;;;;;;-1.28;82.15;99383.45;1841724;77;21415;-59
2021/01/22 01:20:04;;;;;;;41.87;20.90;;;;;;;-1.22;82.06;99387.36;1780880;78;22690;-55
2021/01/22 01:22:33;;;;;;;33.50;17.83;;;;;;;-1.21;82.06;99379.88;1765840;80;21028;-57
2021/01/22 01:25:00;;;;;;;35.13;18.43;;;;;;;-1.19;82.09;99367.52;1800356;78;20969;-56
2021/01/22 01:27:28;;;;;;;32.13;17.83;;;;;;;-1.19;82.08;99378.08;1803460;78;20953;-59
2021/01/22 01:29:55;;;;;;;38.47;21.37;;;;;;;-1.21;82.05;99369.31;1780895;79;21134;-59
2021/01/22 01:32:22;;;;;;;36.77;19.90;;;;;;;-1.22;82.08;99378.12;1784957;78;22293;-54
2021/01/22 01:34:49;;;;;;;34.77;17.63;;;;;;;-1.21;82.12;99368.00;1771112;78;21135;-54
2021/01/22 01:37:16;;;;;;;39.27;20.13;;;;;;;-1.22;82.18;99367.12;1775702;79;21304;-55
2021/01/22 01:39:43;;;;;;;41.10;20.23;;;;;;;-1.21;82.17;99362.27;1767904;79;21087;-54
2021/01/22 01:42:11;;;;;;;42.10;20.30;;;;;;;-1.21;82.18;99356.98;1775490;78;22228;-55
2021/01/22 01:44:38;;;;;;;36.57;18.03;;;;;;;-1.21;82.18;99360.07;1759853;80;21206;-55
2021/01/22 01:50:31;;;;;;;28.27;14.80;;;;;;;-1.17;82.20;99352.09;1795991;78;26877;-56
2021/01/22 01:53:00;;;;;;;36.93;18.27;;;;;;;-1.22;82.24;99349.95;1767540;80;21227;-57
2021/01/22 01:55:28;;;;;;;41.57;19.87;;;;;;;-1.21;82.24;99352.15;1741924;81;21508;-55
2021/01/22 01:57:55;;;;;;;38.00;20.50;;;;;;;-1.20;82.25;99351.27;1738047;81;21068;-56
2021/01/22 02:00:23;;;;;;;34.63;17.90;;;;;;;-1.23;82.21;99346.88;1709604;81;21190;-57
2021/01/22 02:02:52;;;;;;;32.40;16.80;;;;;;;-1.22;82.27;99349.07;1736654;81;21001;-56
2021/01/22 02:05:20;;;;;;;36.17;18.00;;;;;;;-1.23;82.27;99343.36;1733785;81;21476;-60
2021/01/22 02:07:47;;;;;;;37.37;19.03;;;;;;;-1.25;82.31;99334.56;1712992;81;21018;-58
2021/01/22 02:10:15;;;;;;;34.70;17.70;;;;;;;-1.26;82.35;99328.84;1718169;81;21008;-54
2021/01/22 02:12:42;;;;;;;31.80;17.03;;;;;;;-1.28;82.39;99328.00;1686466;82;20949;-55
2021/01/22 02:15:12;;;;;;;31.97;17.00;;;;;;;-1.29;82.41;99341.64;1677197;83;21727;-58
2021/01/22 02:17:43;;;;;;;33.83;16.90;;;;;;;-1.29;82.40;99344.28;1716806;81;21230;-55
2021/01/22 02:20:33;;;;;;;32.47;17.07;;;;;;;-1.28;82.44;99342.09;1702948;82;21558;-59
2021/01/22 02:23:01;;;;;;;33.13;17.17;;;;;;;-1.28;82.44;99350.45;1707255;82;21190;-60
2021/01/22 02:25:33;;;;;;;34.53;17.80;;;;;;;-1.29;82.48;99361.45;1700327;82;21226;-56
2021/01/22 02:28:00;;;;;;;37.40;18.10;;;;;;;-1.28;82.52;99346.48;1702804;82;21072;-58
2021/01/22 02:30:28;;;;;;;35.73;17.47;;;;;;;-1.27;82.58;99338.97;1706997;82;21190;-56
2021/01/22 02:32:55;;;;;;;33.80;18.23;;;;;;;-1.26;82.59;99339.41;1711114;82;21406;-56
2021/01/22 02:35:22;;;;;;;35.00;17.50;;;;;;;-1.25;82.60;99327.95;1708304;81;21182;-60
2021/01/22 02:37:50;;;;;;;35.77;17.77;;;;;;;-1.25;82.60;99334.12;1737007;81;21632;-56
2021/01/22 02:40:18;;;;;;;36.07;18.63;;;;;;;-1.25;82.62;99329.28;1705938;81;21239;-57
2021/01/22 02:42:48;;;;;;;31.80;17.23;;;;;;;-1.24;82.61;99329.71;1726604;80;21458;-54
2021/01/22 02:45:16;;;;;;;36.47;18.77;;;;;;;-1.23;82.66;99323.55;1702792;82;21657;-55
2021/01/22 02:47:45;;;;;;;33.40;18.20;;;;;;;-1.23;82.68;99318.27;1727674;80;21394;-55
2021/01/22 02:50:18;;;;;;;37.20;19.17;;;;;;;-1.23;82.67;99315.18;1700063;82;21528;-57
2021/01/22 02:52:45;;;;;;;32.17;16.80;;;;;;;-1.22;82.68;99317.38;1724972;80;21203;-54
2021/01/22 02:55:12;;;;;;;34.80;18.00;;;;;;;-1.21;82.69;99309.89;1706961;82;21179;-58
2021/01/22 02:57:54;;;;;;;33.47;17.97;;;;;;;-1.21;82.69;99314.73;1684909;80;21627;-55
2021/01/22 03:00:26;;;;;;;35.10;17.17;;;;;;;-1.22;82.71;99314.30;1726082;80;21215;-57
2021/01/22 03:03:06;;;;;;;34.03;16.83;;;;;;;-1.21;82.73;99301.53;1701669;83;21131;-58
2021/01/22 03:05:35;;;;;;;23.17;11.70;;;;;;;-1.22;82.76;99304.18;1728062;80;21697;-57
2021/01/22 03:08:13;;;;;;;30.17;15.43;;;;;;;-1.23;82.80;99283.49;1698075;82;21188;-57
2021/01/22 03:10:40;;;;;;;35.10;17.30;;;;;;;-1.23;82.83;99285.25;1729698;80;21840;-56
2021/01/22 03:13:07;;;;;;;36.73;18.63;;;;;;;-1.25;82.87;99279.98;1701761;82;21259;-56
2021/01/22 03:15:34;;;;;;;36.60;16.63;;;;;;;-1.24;82.90;99280.86;1727570;80;21240;-58
2021/01/22 03:18:19;;;;;;;31.87;17.77;;;;;;;-1.23;82.93;99281.30;1709597;82;21634;-57
2021/01/22 03:20:49;;;;;;;34.10;17.60;;;;;;;-1.22;82.95;99281.73;1698050;82;21203;-57
2021/01/22 03:23:18;;;;;;;39.27;18.57;;;;;;;-1.25;82.95;99284.38;1705920;82;22649;-56
2021/01/22 03:25:46;;;;;;;31.30;17.23;;;;;;;-1.22;82.98;99298.89;1725235;80;21222;-56
2021/01/22 03:28:14;;;;;;;32.03;17.23;;;;;;;-1.22;82.99;99300.22;1701661;82;21196;-58
2021/01/22 03:30:41;;;;;;;36.73;17.83;;;;;;;-1.21;83.06;99294.92;1726326;80;21620;-58
2021/01/22 03:33:10;;;;;;;29.67;17.03;;;;;;;-1.18;83.04;99303.24;1701571;82;21195;-57
2021/01/22 03:35:39;;;;;;;32.40;17.40;;;;;;;-1.16;83.08;99304.12;1715351;81;21791;-58
2021/01/22 03:38:07;;;;;;;32.77;17.47;;;;;;;-1.15;83.04;99305.88;1704018;82;21211;-57
2021/01/22 03:40:34;;;;;;;35.53;17.93;;;;;;;-1.15;83.04;99302.79;1711838;81;21226;-58
2021/01/22 03:43:02;;;;;;;34.07;18.17;;;;;;;-1.11;83.07;99301.45;1711479;81;21202;-56
2021/01/22 03:45:29;;;;;;;33.20;17.27;;;;;;;-1.11;83.05;99294.41;1723328;80;21593;-57
2021/01/22 03:47:57;;;;;;;33.70;19.80;;;;;;;-1.10;83.07;99298.77;1700551;82;21563;-58
2021/01/22 03:50:24;;;;;;;31.13;16.10;;;;;;;-1.10;83.02;99301.41;1696605;82;21515;-58
2021/01/22 03:52:51;;;;;;;35.40;17.43;;;;;;;-1.11;83.07;99289.12;1682668;82;21140;-58
2021/01/22 03:55:18;;;;;;;34.77;17.37;;;;;;;-1.09;83.09;99287.32;1754260;80;21131;-56
2021/01/22 03:57:45;;;;;;;37.00;18.77;;;;;;;-1.07;83.12;99302.72;1749235;79;21112;-56
2021/01/22 04:00:14;;;;;;;39.97;19.67;;;;;;;-1.07;83.12;99294.80;1755652;79;21556;-58
2021/01/22 04:02:41;;;;;;;38.07;18.67;;;;;;;-1.06;83.11;99289.95;1754481;80;21539;-56
2021/01/22 04:05:12;;;;;;;32.53;18.00;;;;;;;-1.04;83.12;99296.10;1755058;79;21132;-58
2021/01/22 04:07:39;;;;;;;39.60;19.13;;;;;;;-1.03;83.14;99289.94;1754866;80;21516;-57
2021/01/22 04:10:07;;;;;;;34.57;19.43;;;;;;;-1.02;83.13;99279.77;1758330;79;21107;-56
2021/01/22 04:12:35;;;;;;;32.23;18.97;;;;;;;-1.01;83.12;99301.33;1754653;79;21359;-57
2021/01/22 04:15:04;;;;;;;37.93;19.77;;;;;;;-1.02;83.12;99289.02;1755668;80;21134;-58
2021/01/22 04:17:32;;;;;;;35.80;19.37;;;;;;;-1.01;83.14;99293.41;1753283;79;21159;-56
2021/01/22 04:20:00;;;;;;;37.73;19.37;;;;;;;-0.99;83.16;99282.39;1754396;79;21108;-57
2021/01/22 04:22:28;;;;;;;36.47;19.70;;;;;;;-0.98;83.15;99281.50;1753698;79;21444;-56
2021/01/22 04:24:55;;;;;;;36.10;18.97;;;;;;;-0.97;83.13;99279.30;1751038;79;21327;-57
2021/01/22 04:27:22;;;;;;;37.33;19.67;;;;;;;-0.94;83.14;99285.00;1754159;79;21416;-56
2021/01/22 04:29:50;;;;;;;38.17;20.97;;;;;;;-0.95;83.14;99288.53;1693323;82;21129;-59
2021/01/22 04:32:17;;;;;;;36.83;19.37;;;;;;;-0.95;83.13;99284.13;1681566;82;21158;-58
2021/01/22 04:34:44;;;;;;;37.30;18.70;;;;;;;-0.95;83.15;99284.13;1685503;82;21166;-56
2021/01/22 04:37:12;;;;;;;40.43;20.20;;;;;;;-0.93;83.15;99279.68;1715914;81;21202;-57
2021/01/22 04:39:41;;;;;;;40.47;21.00;;;;;;;-0.93;83.13;99280.12;1750847;79;21211;-54
2021/01/22 04:42:09;;;;;;;36.17;18.83;;;;;;;-0.93;83.16;99282.77;1732681;80;21199;-56
2021/01/22 04:44:37;;;;;;;35.40;17.63;;;;;;;-0.92;83.20;99283.20;1758663;79;21243;-56
2021/01/22 04:47:07;;;;;;;36.00;17.97;;;;;;;-0.93;83.19;99273.52;1752049;79;21196;-58
2021/01/22 04:49:36;;;;;;;36.37;19.63;;;;;;;-0.93;83.22;99265.59;1755216;79;21441;-57
2021/01/22 04:52:03;;;;;;;38.80;19.63;;;;;;;-0.93;83.23;99273.08;1757112;79;21231;-59
2021/01/22 04:54:37;;;;;;;36.20;18.70;;;;;;;-0.93;83.23;99281.00;1756900;79;21167;-56
2021/01/22 04:57:06;;;;;;;37.55;20.25;;;;;;;-0.93;83.23;99281.00;1728425;80;21198;-58
2021/01/22 04:59:50;;;;;;;39.50;20.53;;;;;;;-0.92;83.27;99281.44;1753139;79;21192;-54
2021/01/22 05:02:19;;;;;;;36.93;18.62;;;;;;;-0.91;83.26;99284.52;1756391;79;21461;-54
2021/01/22 05:04:47;;;;;;;36.60;18.30;;;;;;;-0.90;83.26;99284.95;1757463;80;21230;-56
2021/01/22 05:07:14;;;;;;;36.60;18.07;;;;;;;-0.91;83.23;99279.23;1755391;80;21191;-56
2021/01/22 05:09:42;;;;;;;40.97;20.43;;;;;;;-0.90;83.19;99280.98;1755725;80;21187;-58
2021/01/22 05:12:11;;;;;;;40.13;19.90;;;;;;;-0.90;83.23;99280.11;1757055;80;20993;-57
2021/01/22 05:14:38;;;;;;;46.40;22.90;;;;;;;-0.90;83.27;99273.05;1761367;79;21401;-57
2021/01/22 05:17:09;;;;;;;39.63;22.50;;;;;;;-0.90;83.30;99278.34;1754199;79;21623;-57
2021/01/22 05:19:38;;;;;;;39.77;21.50;;;;;;;-0.89;83.29;99277.45;1752157;80;21183;-57
2021/01/22 05:22:06;;;;;;;39.27;21.03;;;;;;;-0.87;83.30;99272.16;1760988;79;21306;-58
2021/01/22 05:24:36;;;;;;;41.97;21.13;;;;;;;-0.86;83.32;99280.08;1752097;80;21171;-57
2021/01/22 05:27:13;;;;;;;38.90;21.63;;;;;;;-0.85;83.28;99273.03;1758191;79;21447;-57
2021/01/22 05:29:42;;;;;;;38.50;20.43;;;;;;;-0.87;83.23;99277.00;1649262;82;21188;-57
2021/01/22 05:32:28;;;;;;;37.57;20.67;;;;;;;-0.87;83.26;99282.29;1698116;82;21737;-58
2021/01/22 05:34:56;;;;;;;42.27;23.03;;;;;;;-0.85;83.31;99284.44;1691051;82;21401;-56
2021/01/22 05:37:24;;;;;;;38.17;18.90;;;;;;;-0.83;83.32;99277.38;1759257;80;21161;-57
2021/01/22 05:40:13;;;;;;;39.77;21.17;;;;;;;-0.82;83.31;99277.81;1752873;79;21669;-58
2021/01/22 05:42:51;;;;;;;36.60;20.27;;;;;;;-0.81;83.29;99272.97;1758308;79;21183;-56
2021/01/22 05:45:37;;;;;;;37.17;20.23;;;;;;;-0.79;83.27;99280.44;1760622;79;21207;-56
2021/01/22 05:48:27;;;;;;;39.73;21.40;;;;;;;-0.79;83.26;99280.44;1759142;79;21591;-58
2021/01/22 05:50:58;;;;;;;38.07;19.80;;;;;;;-0.81;83.27;99282.22;1747966;80;21215;-56
2021/01/22 05:53:26;;;;;;;31.63;17.17;;;;;;;-0.79;83.21;99287.05;1748462;80;21729;-58
2021/01/22 05:56:09;;;;;;;31.37;17.67;;;;;;;-0.78;83.23;99282.64;1750765;80;21214;-57
2021/01/22 05:58:38;;;;;;;33.27;16.73;;;;;;;-0.78;83.21;99284.84;1738160;80;21615;-59
2021/01/22 06:01:19;;;;;;;34.57;19.10;;;;;;;-0.79;83.18;99281.77;1747896;80;21673;-56
2021/01/22 06:03:52;;;;;;;37.33;19.80;;;;;;;-0.80;83.19;99294.54;1746464;80;21489;-56
2021/01/22 06:06:20;;;;;;;38.93;20.20;;;;;;;-0.80;83.25;99288.38;1748251;80;21216;-57
2021/01/22 06:08:52;;;;;;;36.93;20.10;;;;;;;-0.80;83.27;99290.58;1746099;80;21231;-58
2021/01/22 06:11:26;;;;;;;41.87;21.47;;;;;;;-0.79;83.27;99284.84;1750662;80;21223;-58
2021/01/22 06:13:56;;;;;;;37.87;20.63;;;;;;;-0.78;83.29;99289.25;1749258;80;21210;-57
2021/01/22 06:16:28;;;;;;;33.03;19.57;;;;;;;-0.77;83.26;99281.75;1751273;80;21207;-53
2021/01/22 06:18:59;;;;;;;41.13;22.33;;;;;;;-0.76;83.29;99294.05;1754668;80;21216;-55
2021/01/22 06:21:39;;;;;;;40.47;21.00;;;;;;;-0.75;83.32;99274.66;1750281;80;21368;-56
2021/01/22 06:24:07;;;;;;;38.83;20.87;;;;;;;-0.74;83.32;99277.73;1748679;80;21172;-57
2021/01/22 06:26:39;;;;;;;40.67;22.10;;;;;;;-0.72;83.29;99282.56;1750945;80;21794;-57
2021/01/22 06:29:09;;;;;;;43.80;22.43;;;;;;;-0.70;83.31;99288.72;1684722;83;21137;-56
2021/01/22 06:31:39;;;;;;;35.80;21.17;;;;;;;-0.68;83.31;99288.71;1737673;81;21328;-54
2021/01/22 06:34:07;;;;;;;39.17;21.17;;;;;;;-0.67;83.27;99287.78;1739030;81;21976;-56
2021/01/22 06:36:34;;;;;;;41.07;21.53;;;;;;;-0.66;83.26;99271.04;1738702;81;21459;-55
2021/01/22 06:39:03;;;;;;;41.50;22.00;;;;;;;-0.64;83.29;99270.59;1738658;81;21124;-58
2021/01/22 06:41:31;;;;;;;40.03;20.00;;;;;;;-0.61;83.26;99274.53;1731920;81;21120;-57
2021/01/22 06:43:59;;;;;;;34.67;19.10;;;;;;;-0.59;83.24;99272.72;1730208;81;21562;-57
2021/01/22 06:46:31;;;;;;;39.80;21.67;;;;;;;-0.56;83.23;99272.25;1731094;82;21167;-55
2021/01/22 06:49:03;;;;;;;41.70;22.10;;;;;;;-0.55;83.21;99281.94;1721794;82;21442;-57
2021/01/22 06:51:34;;;;;;;34.37;20.63;;;;;;;-0.53;83.17;99279.28;1719440;81;20970;-56
2021/01/22 06:54:16;;;;;;;39.77;22.73;;;;;;;-0.51;83.11;99274.38;1717240;82;21159;-58
2021/01/22 06:56:57;;;;;;;38.20;21.27;;;;;;;-0.50;83.07;99277.91;1720897;82;21495;-56
2021/01/22 06:59:35;;;;;;;37.13;20.07;;;;;;;-0.48;83.08;99275.68;1723196;81;21135;-56
2021/01/22 07:02:00;;;;;;;40.50;21.73;;;;;;;-0.47;83.04;99267.30;1720777;81;21419;-56
2021/01/22 07:04:35;;;;;;;43.40;23.87;;;;;;;-0.45;83.02;99273.45;1697137;81;21156;-56
2021/01/22 07:07:04;;;;;;;39.13;22.47;;;;;;;-0.44;83.02;99269.48;1721441;82;21613;-57
2021/01/22 07:09:47;;;;;;;42.27;23.47;;;;;;;-0.43;83.01;99263.75;1720819;82;21391;-57
2021/01/22 07:12:39;;;;;;;37.50;21.73;;;;;;;-0.41;83.01;99265.90;1717687;82;21164;-57
2021/01/22 07:15:25;;;;;;;38.27;21.00;;;;;;;-0.37;83.01;99272.92;1722650;81;21167;-57
2021/01/22 07:18:00;;;;;;;37.73;20.60;;;;;;;-0.34;82.96;99269.37;1723802;81;21108;-58
2021/01/22 07:20:29;;;;;;;40.60;22.23;;;;;;;-0.30;82.93;99277.68;1720291;81;21626;-57
2021/01/22 07:23:01;;;;;;;38.33;21.33;;;;;;;-0.28;82.84;99261.35;1723436;81;21469;-57
2021/01/22 07:25:37;;;;;;;41.20;23.30;;;;;;;-0.28;82.77;99268.84;1724247;81;21187;-56
2021/01/22 07:28:18;;;;;;;41.63;22.27;;;;;;;-0.28;82.77;99274.13;1723359;81;21136;-56
2021/01/22 07:30:45;;;;;;;41.80;21.47;;;;;;;-0.26;82.73;99271.48;1721581;81;21164;-57
2021/01/22 07:33:36;;;;;;;34.70;18.37;;;;;;;-0.24;82.76;99273.62;1722639;81;21156;-58
2021/01/22 07:36:09;;;;;;;34.30;17.27;;;;;;;-0.19;82.75;99275.34;1723037;81;21203;-56
2021/01/22 07:38:38;;;;;;;38.80;22.10;;;;;;;-0.14;82.70;99268.21;1721084;81;21313;-56
2021/01/22 07:41:07;;;;;;;34.80;19.70;;;;;;;-0.10;82.63;99262.45;1720588;81;21143;-57
2021/01/22 07:43:34;;;;;;;32.00;17.53;;;;;;;-0.04;82.63;99273.81;1716541;82;21495;-57
2021/01/22 07:46:09;;;;;;;37.97;21.57;;;;;;;0.02;82.62;99275.48;1712804;81;21521;-57
2021/01/22 07:48:38;;;;;;;40.05;21.50;;;;;;;0.08;82.57;99273.23;1718563;81;21238;-55
2021/01/22 07:51:32;;;;;;;45.73;25.63;;;;;;;0.12;82.49;99268.30;1707318;81;21203;-54
2021/01/22 07:54:00;;;;;;;37.20;20.37;;;;;;;0.15;82.37;99275.77;1705004;81;21720;-56
2021/01/22 07:56:37;;;;;;;42.93;23.87;;;;;;;0.20;82.23;99277.01;1705999;82;21227;-58
2021/01/22 07:59:05;;;;;;;37.70;22.43;;;;;;;0.24;82.21;99278.73;1709833;81;21226;-56
2021/01/22 08:01:33;;;;;;;37.10;21.17;;;;;;;0.27;82.15;99279.55;1710234;81;21208;-57
2021/01/22 08:04:01;;;;;;;39.23;21.70;;;;;;;0.33;82.06;99273.30;1704823;83;21187;-57
2021/01/22 08:06:28;;;;;;;36.63;21.50;;;;;;;0.38;81.81;99269.68;1708039;81;21183;-56
2021/01/22 08:09:07;;;;;;;32.10;18.93;;;;;;;0.44;81.75;99278.41;1710668;83;21199;-56
2021/01/22 08:11:34;;;;;;;35.10;22.20;;;;;;;0.48;81.73;99275.72;1711907;81;21199;-54
2021/01/22 08:14:02;;;;;;;32.97;18.87;;;;;;;0.54;81.63;99274.73;1705232;82;22131;-54
2021/01/22 08:16:29;;;;;;;39.90;22.33;;;;;;;0.56;81.50;99264.55;1708236;81;21185;-55
2021/01/22 08:18:57;;;;;;;38.53;22.13;;;;;;;0.58;81.43;99262.77;1706162;83;21553;-57
2021/01/22 08:21:30;;;;;;;35.37;21.23;;;;;;;0.61;81.24;99264.02;1710191;83;21190;-56
2021/01/22 08:23:58;;;;;;;29.80;17.53;;;;;;;0.61;81.07;99262.69;1706945;81;21631;-56
2021/01/22 08:26:28;;;;;;;35.93;21.53;;;;;;;0.63;81.04;99263.55;1707565;83;21394;-57
2021/01/22 08:28:56;;;;;;;36.63;23.03;;;;;;;0.66;81.00;99268.81;1707048;81;21286;-58
2021/01/22 08:31:24;;;;;;;43.67;24.43;;;;;;;0.69;80.94;99270.06;1683351;83;21115;-59
2021/01/22 08:33:52;;;;;;;37.67;22.90;;;;;;;0.71;80.83;99264.30;1711992;81;21191;-54
2021/01/22 08:36:19;;;;;;;36.93;22.53;;;;;;;0.74;80.81;99262.06;1707709;83;21242;-58
2021/01/22 08:38:47;;;;;;;37.27;22.63;;;;;;;0.80;80.79;99272.99;1699121;82;23535;-59
2021/01/22 08:41:27;;;;;;;35.77;20.83;;;;;;;0.88;80.68;99260.48;1625239;86;21328;-55
2021/01/22 08:43:55;;;;;;;38.07;22.10;;;;;;;0.93;80.56;99260.85;1682553;83;21225;-53
2021/01/22 08:46:23;;;;;;;37.80;23.60;;;;;;;0.98;80.46;99260.76;1644979;84;21229;-58
2021/01/22 08:48:51;;;;;;;38.43;24.23;;;;;;;1.00;80.31;99257.64;1681591;83;21371;-54
2021/01/22 08:51:28;;;;;;;45.17;25.37;;;;;;;1.01;80.29;99256.30;1675116;83;21387;-56
2021/01/22 08:53:57;;;;;;;40.03;24.03;;;;;;;1.02;80.16;99250.06;1673185;83;21213;-54
2021/01/22 08:56:24;;;;;;;35.57;21.40;;;;;;;1.05;80.12;99241.19;1692685;82;21173;-55
2021/01/22 08:59:09;;;;;;;37.47;21.87;;;;;;;1.07;80.05;99240.27;1672874;83;21198;-54
2021/01/22 09:01:55;;;;;;;37.47;21.53;;;;;;;1.13;80.07;99248.10;1687262;82;21165;-55
2021/01/22 09:04:29;;;;;;;33.23;21.00;;;;;;;1.20;80.01;99239.58;1691732;82;21403;-59
2021/01/22 09:07:04;;;;;;;39.27;22.90;;;;;;;1.27;79.90;99249.19;1651825;84;21198;-57
2021/01/22 09:09:47;;;;;;;36.00;22.10;;;;;;;1.34;79.78;99237.56;1640545;85;21150;-57
2021/01/22 09:12:19;;;;;;;37.03;22.33;;;;;;;1.39;79.65;99244.08;1686200;82;21232;-57
2021/01/22 09:15:03;;;;;;;33.87;20.57;;;;;;;1.43;79.55;99237.83;1670102;83;21532;-57
2021/01/22 09:17:49;;;;;;;29.75;18.12;;;;;;;1.49;79.36;99239.90;1644897;85;22266;-58
2021/01/22 09:20:21;;;;;;;31.13;19.20;;;;;;;1.53;79.21;99232.28;1688020;82;21268;-59
2021/01/22 09:22:50;;;;;;;33.30;21.10;;;;;;;1.56;79.05;99242.42;1683223;82;21285;-59
2021/01/22 09:25:19;;;;;;;34.63;20.93;;;;;;;1.59;78.84;99233.09;1682121;82;21130;-58
2021/01/22 09:27:47;;;;;;;35.13;21.33;;;;;;;1.59;78.82;99233.96;1689761;82;21190;-59
2021/01/22 09:30:17;;;;;;;29.90;18.40;;;;;;;1.61;78.67;99230.83;1670268;83;22694;-58
2021/01/22 09:32:46;;;;;;;33.90;20.10;;;;;;;1.64;78.50;99220.14;1685888;82;21438;-59
2021/01/22 09:35:13;;;;;;;29.93;18.40;;;;;;;1.69;78.31;99224.91;1686216;82;21595;-56
2021/01/22 09:37:41;;;;;;;29.27;18.10;;;;;;;1.73;78.28;99211.98;1668608;83;21222;-56
2021/01/22 09:40:09;;;;;;;33.30;20.83;;;;;;;1.77;78.09;99206.17;1650355;84;21665;-56
2021/01/22 09:42:36;;;;;;;30.90;19.17;;;;;;;1.80;77.91;99204.77;1627558;86;23022;-56
2021/01/22 09:45:05;;;;;;;29.50;19.87;;;;;;;1.85;77.72;99206.43;1639674;85;21158;-56
2021/01/22 09:47:33;;;;;;;30.13;19.93;;;;;;;1.90;77.62;99202.33;1673148;83;21129;-55
2021/01/22 09:50:01;;;;;;;28.23;18.73;;;;;;;1.99;77.53;99195.95;1652863;84;23075;-60
2021/01/22 09:52:29;;;;;;;30.90;19.20;;;;;;;2.08;77.40;99196.61;1630936;85;21168;-58
2021/01/22 09:54:57;;;;;;;27.43;17.70;;;;;;;2.18;77.03;99184.00;1631862;86;21462;-56
2021/01/22 09:57:24;;;;;;;33.63;20.37;;;;;;;2.25;76.79;99196.22;1634304;85;21172;-56
2021/01/22 09:59:52;;;;;;;33.80;20.83;;;;;;;2.25;76.60;99190.91;1630310;86;21159;-57
2021/01/22 10:02:19;;;;;;;34.37;21.57;;;;;;;2.26;76.29;99186.90;1632970;86;21195;-59
2021/01/22 10:04:46;;;;;;;32.87;20.97;;;;;;;2.26;76.14;99179.38;1631068;86;21460;-60
2021/01/22 10:07:13;;;;;;;30.73;19.13;;;;;;;2.25;75.88;99185.14;1628637;86;22049;-58
2021/01/22 10:09:40;;;;;;;28.30;18.50;;;;;;;2.28;75.83;99190.39;1630494;86;21148;-57
2021/01/22 10:12:08;;;;;;;29.17;18.93;;;;;;;2.28;75.73;99187.73;1631986;86;21180;-60
2021/01/22 10:14:35;;;;;;;30.53;19.73;;;;;;;2.33;75.61;99181.42;1628803;86;21165;-58
2021/01/22 10:17:03;;;;;;;27.93;18.90;;;;;;;2.36;75.56;99173.40;1631543;86;21124;-58
2021/01/22 10:19:32;;;;;;;32.23;20.73;;;;;;;2.40;75.44;99171.94;1634209;85;22144;-58
2021/01/22 10:21:59;;;;;;;29.87;19.77;;;;;;;2.44;75.32;99172.75;1635151;85;21701;-59
2021/01/22 10:24:26;;;;;;;31.13;20.37;;;;;;;2.44;75.17;99163.45;1632900;85;21155;-60
2021/01/22 10:26:53;;;;;;;28.67;19.07;;;;;;;2.47;75.10;99161.58;1631845;85;21493;-59
2021/01/22 10:29:21;;;;;;;28.47;18.23;;;;;;;2.51;74.81;99160.60;1635742;85;21155;-56
2021/01/22 10:31:48;;;;;;;25.10;19.13;;;;;;;2.53;74.73;99153.93;1629480;85;21462;-58
2021/01/22 10:34:16;;;;;;;27.23;18.43;;;;;;;2.53;74.64;99156.59;1628551;85;21802;-59
2021/01/22 10:36:43;;;;;;;32.90;20.57;;;;;;;2.54;74.60;99159.20;1629246;85;21253;-58
2021/01/22 10:39:11;;;;;;;29.60;19.97;;;;;;;2.56;74.48;99153.83;1626694;86;21220;-58
2021/01/22 10:41:39;;;;;;;30.50;20.37;;;;;;;2.59;74.35;99141.81;1630894;85;21147;-57
2021/01/22 10:44:06;;;;;;;32.10;19.57;;;;;;;2.61;74.24;99138.66;1634316;85;22302;-57
2021/01/22 10:46:33;;;;;;;30.43;19.43;;;;;;;2.64;74.04;99132.80;1630551;86;21530;-57
2021/01/22 10:49:01;;;;;;;27.37;18.37;;;;;;;2.68;73.99;99125.63;1630968;85;21522;-58
2021/01/22 10:51:28;;;;;;;29.23;18.67;;;;;;;2.71;73.95;99122.90;1640107;84;21262;-57
2021/01/22 10:53:55;;;;;;;25.20;18.07;;;;;;;2.75;73.71;99122.34;1644569;84;21681;-58
2021/01/22 10:56:25;;;;;;;27.90;18.53;;;;;;;2.74;73.66;99113.95;1648511;84;21249;-57
2021/01/22 10:58:52;;;;;;;30.40;19.60;;;;;;;2.74;73.47;99113.95;1643022;84;21819;-57
2021/01/22 11:01:19;;;;;;;31.93;19.70;;;;;;;2.72;73.37;99109.16;1647735;84;21230;-58
2021/01/22 11:03:47;;;;;;;33.67;21.30;;;;;;;2.69;73.34;99107.90;1688191;83;21756;-56
2021/01/22 11:06:14;;;;;;;31.63;19.57;;;;;;;2.69;73.27;99103.91;1683691;83;21230;-58
2021/01/22 11:08:42;;;;;;;26.47;17.43;;;;;;;2.72;73.24;99106.50;1679865;83;21719;-56
2021/01/22 11:11:11;;;;;;;27.13;18.63;;;;;;;2.75;73.16;99104.61;1678520;83;21943;-57
2021/01/22 11:13:39;;;;;;;29.03;19.80;;;;;;;2.80;73.10;99102.72;1683270;83;21216;-59
2021/01/22 11:16:06;;;;;;;27.47;17.50;;;;;;;2.82;72.98;99100.88;1679569;83;21202;-56
2021/01/22 11:18:34;;;;;;;28.90;19.57;;;;;;;2.84;72.89;99099.05;1652147;84;21308;-58
2021/01/22 11:21:01;;;;;;;29.03;18.27;;;;;;;2.85;72.79;99090.62;1651114;85;21232;-59
2021/01/22 11:23:29;;;;;;;26.70;17.80;;;;;;;2.85;72.73;99084.84;1645638;85;21592;-57
2021/01/22 11:25:57;;;;;;;27.17;16.87;;;;;;;2.87;72.75;99089.67;1648058;84;21666;-57
2021/01/22 11:28:25;;;;;;;23.00;14.93;;;;;;;2.91;72.71;99087.78;1646254;85;21547;-59
2021/01/22 11:30:52;;;;;;;25.63;18.70;;;;;;;2.96;72.56;99079.24;1649769;85;21468;-59
2021/01/22 11:33:19;;;;;;;27.23;18.03;;;;;;;2.97;72.55;99076.55;1647875;84;21359;-58
2021/01/22 11:35:48;;;;;;;26.33;17.37;;;;;;;2.98;72.49;99079.59;1654715;84;21250;-59